createdAt,value
2018-09-15T00:01:54.650Z,7.13
2018-09-15T00:04:23.096Z,6.40
2018-09-15T00:06:52.084Z,6.20
2018-09-15T00:09:20.473Z,6.47
2018-09-15T00:11:48.989Z,6.53
2018-09-15T00:14:17.433Z,5.93
2018-09-15T00:16:45.759Z,6.47
2018-09-15T00:19:14.124Z,6.57
2018-09-15T00:21:42.532Z,6.30
2018-09-15T00:24:10.891Z,5.87
2018-09-15T00:26:39.263Z,6.13
2018-09-15T00:29:07.971Z,6.07
2018-09-15T00:31:36.301Z,6.53
2018-09-15T00:34:04.723Z,6.20
2018-09-15T00:36:33.118Z,6.73
2018-09-15T00:39:01.494Z,6.57
2018-09-15T00:41:29.868Z,6.27
2018-09-15T00:43:58.251Z,6.13
2018-09-15T00:46:26.605Z,6.90
2018-09-15T00:48:54.927Z,6.83
2018-09-15T00:51:23.313Z,6.97
2018-09-15T00:53:51.700Z,6.90
2018-09-15T00:56:20.036Z,6.77
2018-09-15T00:58:48.420Z,6.63
2018-09-15T01:01:16.748Z,7.03
2018-09-15T01:03:45.571Z,6.87
2018-09-15T01:06:14.021Z,7.00
2018-09-15T01:08:42.344Z,6.97
2018-09-15T01:11:10.697Z,7.57
2018-09-15T01:13:39.032Z,7.50
2018-09-15T01:16:07.340Z,7.57
2018-09-15T01:18:35.641Z,6.83
2018-09-15T01:21:03.976Z,7.43
2018-09-15T01:23:32.373Z,6.27
2018-09-15T01:26:00.783Z,6.07
2018-09-15T01:28:29.063Z,6.80
2018-09-15T01:30:57.368Z,6.43
2018-09-15T01:33:25.676Z,6.30
2018-09-15T01:35:54.049Z,6.57
2018-09-15T01:38:22.348Z,6.90
2018-09-15T01:40:50.760Z,6.10
2018-09-15T01:43:19.128Z,6.30
2018-09-15T01:45:47.439Z,7.13
2018-09-15T01:48:15.728Z,6.70
2018-09-15T01:50:44.360Z,7.27
2018-09-15T01:53:12.707Z,6.93
2018-09-15T01:55:41.031Z,7.07
2018-09-15T01:58:09.702Z,6.47
2018-09-15T02:00:37.988Z,5.80
2018-09-15T02:03:06.337Z,6.80
2018-09-15T02:05:34.736Z,6.23
2018-09-15T02:08:03.052Z,6.47
2018-09-15T02:10:31.336Z,7.40
2018-09-15T02:12:59.661Z,6.93
2018-09-15T02:15:27.972Z,7.80
2018-09-15T02:17:56.281Z,6.93
2018-09-15T02:20:24.616Z,6.63
2018-09-15T02:22:52.969Z,6.97
2018-09-15T02:25:21.245Z,7.37
2018-09-15T02:27:49.597Z,7.00
2018-09-15T02:30:17.876Z,7.67
2018-09-15T02:32:46.173Z,7.27
2018-09-15T02:35:14.596Z,6.67
2018-09-15T02:37:42.897Z,7.53
2018-09-15T02:40:11.280Z,7.07
2018-09-15T02:42:39.573Z,7.00
2018-09-15T02:45:07.958Z,6.80
2018-09-15T02:47:36.290Z,6.47
2018-09-15T02:50:05.022Z,7.40
2018-09-15T02:52:33.344Z,6.73
2018-09-15T02:55:01.641Z,6.57
2018-09-15T02:57:29.990Z,6.70
2018-09-15T02:59:58.296Z,7.17
2018-09-15T03:02:26.601Z,6.50
2018-09-15T03:04:54.980Z,5.73
2018-09-15T03:07:23.287Z,6.87
2018-09-15T03:09:51.572Z,5.47
2018-09-15T03:12:20.219Z,6.57
2018-09-15T03:14:48.549Z,6.70
2018-09-15T03:17:16.868Z,7.40
2018-09-15T03:19:45.232Z,7.50
2018-09-15T03:22:13.541Z,7.53
2018-09-15T03:24:41.853Z,7.83
2018-09-15T03:27:10.201Z,7.37
2018-09-15T03:29:38.500Z,7.80
2018-09-15T03:32:06.849Z,7.80
2018-09-15T03:34:35.217Z,8.33
2018-09-15T03:37:03.519Z,8.73
2018-09-15T03:39:31.841Z,7.93
2018-09-15T03:42:00.182Z,8.20
2018-09-15T03:44:28.475Z,8.53
2018-09-15T03:46:56.753Z,8.10
2018-09-15T03:49:25.585Z,7.80
2018-09-15T03:51:53.985Z,8.33
2018-09-15T03:54:22.396Z,7.47
2018-09-15T03:56:51.209Z,7.93
2018-09-15T03:59:19.529Z,8.30
2018-09-15T04:01:48.045Z,7.47
2018-09-15T04:04:16.390Z,8.10
2018-09-15T04:06:44.685Z,7.90
2018-09-15T04:09:12.994Z,7.80
2018-09-15T04:11:41.325Z,7.40
2018-09-15T04:14:09.707Z,8.13
2018-09-15T04:16:38.049Z,7.77
2018-09-15T04:19:06.404Z,8.70
2018-09-15T04:21:34.764Z,8.27
2018-09-15T04:24:03.078Z,7.80
2018-09-15T04:26:31.397Z,7.93
2018-09-15T04:28:59.680Z,7.80
2018-09-15T04:31:28.100Z,8.10
2018-09-15T04:33:56.533Z,8.10
2018-09-15T04:36:24.862Z,7.57
2018-09-15T04:38:53.200Z,7.17
2018-09-15T04:41:21.518Z,7.47
2018-09-15T04:43:49.808Z,7.30
2018-09-15T04:46:18.192Z,7.80
2018-09-15T04:48:46.539Z,7.47
2018-09-15T04:51:14.856Z,7.27
2018-09-15T04:53:43.140Z,6.70
2018-09-15T04:56:11.507Z,8.00
2018-09-15T04:58:39.882Z,7.73
2018-09-15T05:01:08.176Z,7.27
2018-09-15T05:03:36.606Z,11.30
2018-09-15T05:06:04.897Z,6.57
2018-09-15T05:08:33.184Z,7.57
2018-09-15T05:11:01.852Z,7.80
2018-09-15T05:13:30.508Z,7.80
2018-09-15T05:15:58.932Z,7.37
2018-09-15T05:18:27.272Z,7.17
2018-09-15T05:20:55.552Z,6.93
2018-09-15T05:23:23.837Z,7.30
2018-09-15T05:25:52.158Z,7.67
2018-09-15T05:28:20.475Z,8.30
2018-09-15T05:30:49.028Z,7.00
2018-09-15T05:33:17.362Z,7.50
2018-09-15T05:35:45.657Z,7.70
2018-09-15T05:38:13.961Z,8.47
2018-09-15T05:40:42.301Z,9.67
2018-09-15T05:43:10.688Z,8.60
2018-09-15T05:45:38.984Z,8.90
2018-09-15T05:48:07.324Z,9.00
2018-09-15T05:50:35.613Z,7.63
2018-09-15T05:53:03.887Z,7.73
2018-09-15T05:55:32.220Z,7.97
2018-09-15T05:58:00.511Z,7.43
2018-09-15T06:00:35.678Z,8.03
2018-09-15T06:03:03.951Z,7.63
2018-09-15T06:05:32.234Z,6.13
2018-09-15T06:08:00.902Z,8.30
2018-09-15T06:10:29.204Z,6.53
2018-09-15T06:12:57.476Z,6.97
2018-09-15T06:15:25.897Z,6.97
2018-09-15T06:17:54.205Z,7.17
2018-09-15T06:20:22.551Z,7.23
2018-09-15T06:22:50.922Z,6.90
2018-09-15T06:25:19.237Z,9.33
2018-09-15T06:27:47.787Z,9.53
2018-09-15T06:30:16.151Z,7.47
2018-09-15T06:32:44.440Z,8.20
2018-09-15T06:35:12.796Z,8.57
2018-09-15T06:37:41.117Z,8.50
2018-09-15T06:40:09.437Z,9.75
2018-09-15T06:42:37.857Z,10.30
2018-09-15T06:45:06.361Z,9.25
2018-09-15T06:47:34.668Z,11.05
2018-09-15T06:50:03.021Z,10.80
2018-09-15T06:52:31.374Z,10.98
2018-09-15T06:54:59.689Z,12.45
2018-09-15T06:57:28.023Z,12.37
2018-09-15T06:59:56.346Z,11.48
2018-09-15T07:02:27.728Z,12.25
2018-09-15T07:04:56.050Z,11.75
2018-09-15T07:07:24.372Z,11.53
2018-09-15T07:09:52.666Z,11.68
2018-09-15T07:12:20.989Z,11.05
2018-09-15T07:14:49.324Z,11.35
2018-09-15T07:17:17.660Z,10.30
2018-09-15T07:19:45.985Z,9.23
2018-09-15T07:22:15.200Z,7.47
2018-09-15T07:24:43.484Z,8.18
2018-09-15T07:27:11.812Z,7.53
2018-09-15T07:29:40.124Z,8.48
2018-09-15T07:32:11.490Z,8.13
2018-09-15T07:34:39.874Z,7.97
2018-09-15T07:37:08.188Z,7.53
2018-09-15T07:39:36.581Z,6.08
2018-09-15T07:42:05.312Z,6.60
2018-09-15T07:44:33.637Z,5.67
2018-09-15T07:47:01.944Z,4.50
2018-09-15T07:49:30.312Z,4.37
2018-09-15T07:51:58.653Z,3.47
2018-09-15T07:54:27.012Z,5.33
2018-09-15T07:56:55.362Z,3.90
2018-09-15T07:59:23.681Z,3.90
2018-09-15T08:01:52.074Z,3.98
2018-09-15T08:04:20.371Z,4.10
2018-09-15T08:06:48.692Z,3.77
2018-09-15T08:09:17.292Z,4.12
2018-09-15T08:11:45.605Z,5.15
2018-09-15T08:14:13.968Z,4.45
2018-09-15T08:16:42.285Z,5.42
2018-09-15T08:19:10.600Z,4.67
2018-09-15T08:21:38.926Z,3.67
2018-09-15T08:24:07.488Z,4.28
2018-09-15T08:26:35.867Z,3.72
2018-09-15T08:29:04.124Z,3.80
2018-09-15T08:31:32.464Z,4.42
2018-09-15T08:34:00.768Z,4.30
2018-09-15T08:36:29.100Z,3.52
2018-09-15T08:38:57.420Z,3.20
2018-09-15T08:41:25.858Z,2.83
2018-09-15T08:43:54.108Z,2.30
2018-09-15T08:46:22.420Z,2.70
2018-09-15T08:48:50.744Z,2.63
2018-09-15T08:51:19.104Z,2.60
2018-09-15T08:53:47.464Z,2.40
2018-09-15T08:56:15.812Z,2.37
2018-09-15T08:58:44.105Z,2.53
2018-09-15T09:01:12.525Z,2.47
2018-09-15T09:03:40.896Z,2.03
2018-09-15T09:06:09.208Z,2.40
2018-09-15T09:08:44.271Z,1.80
2018-09-15T09:11:12.866Z,2.00
2018-09-15T09:13:41.256Z,1.70
2018-09-15T09:16:09.812Z,1.60
2018-09-15T09:18:38.142Z,1.80
2018-09-15T09:21:06.436Z,1.83
2018-09-15T09:23:34.764Z,1.60
2018-09-15T09:26:03.390Z,1.87
2018-09-15T09:28:31.646Z,1.80
2018-09-15T09:30:59.988Z,1.97
2018-09-15T09:33:28.302Z,1.70
2018-09-15T09:35:56.592Z,1.80
2018-09-15T09:38:24.939Z,1.77
2018-09-15T09:40:53.348Z,2.23
2018-09-15T09:43:21.708Z,1.40
2018-09-15T09:45:50.081Z,1.70
2018-09-15T09:48:18.521Z,1.93
2018-09-15T09:50:46.840Z,2.00
2018-09-15T09:53:15.172Z,1.60
2018-09-15T09:55:43.719Z,1.20
2018-09-15T09:58:12.045Z,1.53
2018-09-15T10:00:45.696Z,1.63
2018-09-15T10:03:13.987Z,1.30
2018-09-15T10:05:42.297Z,1.40
2018-09-15T10:08:10.644Z,1.47
2018-09-15T10:10:38.983Z,1.40
2018-09-15T10:13:07.348Z,1.70
2018-09-15T10:15:35.649Z,1.40
2018-09-15T10:18:03.940Z,1.60
2018-09-15T10:20:32.276Z,1.23
2018-09-15T10:23:00.618Z,1.33
2018-09-15T10:25:28.953Z,1.80
2018-09-15T10:27:57.276Z,1.13
2018-09-15T10:30:25.637Z,1.53
2018-09-15T10:32:53.921Z,1.20
2018-09-15T10:35:22.223Z,1.50
2018-09-15T10:37:50.528Z,1.20
2018-09-15T10:40:18.850Z,1.37
2018-09-15T10:42:47.103Z,1.43
2018-09-15T10:45:15.594Z,1.17
2018-09-15T10:47:43.869Z,1.57
2018-09-15T10:50:12.156Z,1.70
2018-09-15T10:52:40.476Z,1.47
2018-09-15T10:55:08.748Z,1.40
2018-09-15T10:57:37.133Z,1.40
2018-09-15T11:00:05.761Z,1.33
2018-09-15T11:02:34.032Z,2.00
2018-09-15T11:05:02.335Z,1.47
2018-09-15T11:07:30.657Z,1.50
2018-09-15T11:09:59.268Z,1.50
2018-09-15T11:12:27.656Z,2.10
2018-09-15T11:14:55.972Z,1.13
2018-09-15T11:17:24.280Z,1.47
2018-09-15T11:19:52.825Z,1.40
2018-09-15T11:22:21.200Z,1.50
2018-09-15T11:24:49.493Z,1.00
2018-09-15T11:27:17.812Z,1.50
2018-09-15T11:29:46.145Z,1.47
2018-09-15T11:32:14.426Z,1.87
2018-09-15T11:34:42.717Z,1.57
2018-09-15T11:37:11.020Z,1.50
2018-09-15T11:39:39.316Z,1.27
2018-09-15T11:42:07.621Z,1.40
2018-09-15T11:44:35.940Z,1.47
2018-09-15T11:47:04.236Z,1.50
2018-09-15T11:49:32.536Z,1.50
2018-09-15T11:52:00.840Z,1.27
2018-09-15T11:54:29.160Z,1.47
2018-09-15T11:56:57.451Z,1.57
2018-09-15T11:59:25.772Z,1.50
2018-09-15T12:01:54.069Z,1.20
2018-09-15T12:04:22.389Z,2.00
2018-09-15T12:06:50.718Z,1.40
2018-09-15T12:09:19.001Z,1.20
2018-09-15T12:11:47.301Z,1.93
2018-09-15T12:14:15.649Z,1.00
2018-09-15T12:16:43.929Z,1.43
2018-09-15T12:19:12.232Z,1.23
2018-09-15T12:21:40.540Z,1.40
2018-09-15T12:24:08.889Z,1.30
2018-09-15T12:26:37.265Z,1.10
2018-09-15T12:29:05.688Z,1.27
2018-09-15T12:31:33.985Z,1.50
2018-09-15T12:34:02.359Z,1.40
2018-09-15T12:36:30.636Z,1.60
2018-09-15T12:38:58.928Z,2.03
2018-09-15T12:41:27.237Z,1.13
2018-09-15T12:43:55.817Z,1.47
2018-09-15T12:46:24.139Z,2.33
2018-09-15T12:48:52.430Z,1.90
2018-09-15T12:51:20.795Z,1.20
2018-09-15T12:53:49.122Z,1.50
2018-09-15T12:56:17.416Z,2.20
2018-09-15T12:58:45.724Z,1.57
2018-09-15T13:01:14.023Z,1.50
2018-09-15T13:03:42.324Z,1.00
2018-09-15T13:06:10.720Z,1.10
2018-09-15T13:08:39.007Z,1.40
2018-09-15T13:11:07.345Z,1.50
2018-09-15T13:13:36.668Z,1.20
2018-09-15T13:16:05.005Z,1.40
2018-09-15T13:18:33.305Z,1.30
2018-09-15T13:21:01.727Z,1.03
2018-09-15T13:23:30.075Z,1.37
2018-09-15T13:25:58.444Z,1.30
2018-09-15T13:28:26.773Z,1.90
2018-09-15T13:30:55.081Z,1.23
2018-09-15T13:33:23.376Z,1.23
2018-09-15T13:35:51.766Z,1.33
2018-09-15T13:38:20.081Z,1.30
2018-09-15T13:40:48.396Z,1.30
2018-09-15T13:43:16.719Z,1.00
2018-09-15T13:45:45.038Z,1.30
2018-09-15T13:48:13.342Z,1.63
2018-09-15T13:50:41.669Z,1.67
2018-09-15T13:53:10.015Z,1.77
2018-09-15T13:55:38.297Z,1.60
2018-09-15T13:58:06.736Z,1.87
2018-09-15T14:00:35.036Z,4.03
2018-09-15T14:03:03.328Z,1.43
2018-09-15T14:05:32.222Z,1.30
2018-09-15T14:08:00.548Z,1.63
2018-09-15T14:10:28.846Z,1.30
2018-09-15T14:12:57.168Z,1.50
2018-09-15T14:15:25.458Z,1.20
2018-09-15T14:17:53.776Z,1.60
2018-09-15T14:20:22.097Z,1.20
2018-09-15T14:22:50.515Z,1.50
2018-09-15T14:25:18.829Z,1.50
2018-09-15T14:27:47.162Z,1.13
2018-09-15T14:30:15.452Z,1.80
2018-09-15T14:32:43.735Z,1.67
2018-09-15T14:35:12.040Z,1.60
2018-09-15T14:37:40.336Z,1.57
2018-09-15T14:40:08.624Z,1.40
2018-09-15T14:42:36.936Z,1.43
2018-09-15T14:45:05.259Z,1.67
2018-09-15T14:47:33.550Z,1.70
2018-09-15T14:50:01.910Z,2.10
2018-09-15T14:52:30.262Z,1.43
2018-09-15T14:54:58.569Z,1.47
2018-09-15T14:57:27.027Z,1.53
2018-09-15T14:59:55.344Z,1.50
2018-09-15T15:02:23.640Z,1.63
2018-09-15T15:04:51.957Z,1.43
2018-09-15T15:07:20.248Z,2.30
2018-09-15T15:09:48.528Z,1.43
2018-09-15T15:12:16.872Z,1.50
2018-09-15T15:14:45.157Z,2.10
2018-09-15T15:17:13.461Z,1.70
2018-09-15T15:19:41.841Z,1.90
2018-09-15T15:22:10.125Z,1.80
2018-09-15T15:24:38.445Z,1.50
2018-09-15T15:27:06.784Z,1.70
2018-09-15T15:29:35.107Z,1.70
2018-09-15T15:32:03.413Z,1.47
2018-09-15T15:34:31.842Z,1.70
2018-09-15T15:37:00.140Z,1.53
2018-09-15T15:39:28.432Z,1.63
2018-09-15T15:41:57.423Z,1.60
2018-09-15T15:44:25.727Z,1.80
2018-09-15T15:46:54.025Z,1.63
2018-09-15T15:49:22.421Z,1.83
2018-09-15T15:51:50.900Z,1.93
2018-09-15T15:54:19.197Z,1.87
2018-09-15T15:56:47.537Z,1.40
2018-09-15T15:59:15.885Z,1.50
2018-09-15T16:01:44.213Z,1.50
2018-09-15T16:04:12.529Z,1.90
2018-09-15T16:06:40.830Z,1.93
2018-09-15T16:09:09.126Z,1.83
2018-09-15T16:11:37.824Z,1.80
2018-09-15T16:14:06.108Z,1.67
2018-09-15T16:16:34.410Z,1.83
2018-09-15T16:19:02.714Z,1.63
2018-09-15T16:21:31.041Z,1.70
2018-09-15T16:23:59.380Z,1.70
2018-09-15T16:26:27.739Z,1.60
2018-09-15T16:28:56.548Z,1.77
2018-09-15T16:31:24.854Z,1.70
2018-09-15T16:33:53.208Z,1.57
2018-09-15T16:36:21.498Z,1.60
2018-09-15T16:38:49.811Z,1.60
2018-09-15T16:41:18.188Z,1.60
2018-09-15T16:43:46.540Z,1.47
2018-09-15T16:46:14.877Z,1.77
2018-09-15T16:48:43.215Z,1.80
2018-09-15T16:51:11.565Z,2.13
2018-09-15T16:53:39.968Z,1.70
2018-09-15T16:56:08.273Z,1.40
2018-09-15T16:58:36.577Z,1.70
2018-09-15T17:01:04.916Z,1.80
2018-09-15T17:03:33.430Z,1.40
2018-09-15T17:06:02.074Z,2.17
2018-09-15T17:08:30.587Z,2.10
2018-09-15T17:10:58.913Z,1.73
2018-09-15T17:13:27.247Z,1.87
2018-09-15T17:15:55.531Z,1.63
2018-09-15T17:18:23.845Z,1.90
2018-09-15T17:20:52.388Z,1.90
2018-09-15T17:23:20.703Z,1.77
2018-09-15T17:25:49.106Z,2.00
2018-09-15T17:28:17.405Z,1.60
2018-09-15T17:30:45.796Z,2.57
2018-09-15T17:33:14.248Z,3.27
2018-09-15T17:35:42.555Z,2.03
2018-09-15T17:38:10.845Z,2.07
2018-09-15T17:40:39.260Z,1.83
2018-09-15T17:43:07.593Z,2.30
2018-09-15T17:45:35.920Z,1.90
2018-09-15T17:48:04.836Z,2.37
2018-09-15T17:50:33.174Z,3.20
2018-09-15T17:53:01.470Z,2.67
2018-09-15T17:55:29.912Z,2.03
2018-09-15T17:57:58.286Z,1.60
2018-09-15T18:00:26.580Z,1.90
2018-09-15T18:02:55.006Z,3.60
2018-09-15T18:05:23.301Z,3.27
2018-09-15T18:07:51.623Z,2.77
2018-09-15T18:10:19.960Z,2.43
2018-09-15T18:12:48.324Z,2.40
2018-09-15T18:15:16.604Z,2.10
2018-09-15T18:17:44.898Z,2.43
2018-09-15T18:20:13.197Z,2.00
2018-09-15T18:22:41.486Z,2.70
2018-09-15T18:25:09.857Z,2.30
2018-09-15T18:27:38.157Z,2.27
2018-09-15T18:30:06.681Z,2.27
2018-09-15T18:32:35.080Z,3.00
2018-09-15T18:35:03.405Z,2.83
2018-09-15T18:37:31.772Z,2.57
2018-09-15T18:40:00.121Z,2.67
2018-09-15T18:42:28.412Z,2.40
2018-09-15T18:44:56.984Z,2.30
2018-09-15T18:47:25.371Z,2.27
2018-09-15T18:49:53.673Z,2.43
2018-09-15T18:52:21.952Z,2.70
2018-09-15T18:54:50.333Z,2.53
2018-09-15T18:57:18.621Z,2.77
2018-09-15T18:59:46.939Z,2.80
2018-09-15T19:02:15.336Z,3.93
2018-09-15T19:04:43.636Z,4.13
2018-09-15T19:07:12.316Z,3.73
2018-09-15T19:09:40.640Z,3.27
2018-09-15T19:12:08.916Z,2.90
2018-09-15T19:14:37.278Z,3.10
2018-09-15T19:17:06.021Z,3.17
2018-09-15T19:19:34.328Z,3.83
2018-09-15T19:22:02.608Z,5.80
2018-09-15T19:24:30.913Z,2.90
2018-09-15T19:26:59.303Z,3.00
2018-09-15T19:29:27.512Z,2.97
2018-09-15T19:31:55.825Z,2.83
2018-09-15T19:34:24.096Z,3.03
2018-09-15T19:36:52.384Z,3.10
2018-09-15T19:39:20.702Z,3.20
2018-09-15T19:41:48.993Z,3.13
2018-09-15T19:44:17.293Z,3.10
2018-09-15T19:46:45.945Z,3.27
2018-09-15T19:49:14.276Z,3.27
2018-09-15T19:51:42.584Z,3.40
2018-09-15T19:54:10.968Z,2.90
2018-09-15T19:56:39.280Z,3.30
2018-09-15T19:59:07.589Z,3.23
2018-09-15T20:01:35.929Z,3.00
2018-09-15T20:04:04.212Z,2.87
2018-09-15T20:06:32.510Z,3.13
2018-09-15T20:09:00.828Z,2.80
2018-09-15T20:11:29.116Z,3.17
2018-09-15T20:13:57.417Z,3.20
2018-09-15T20:16:24.697Z,3.00
2018-09-15T20:18:51.953Z,3.03
2018-09-15T20:21:19.193Z,5.20
2018-09-15T20:23:47.508Z,3.27
2018-09-15T20:26:15.816Z,3.00
2018-09-15T20:28:44.153Z,3.33
2018-09-15T20:31:12.564Z,2.87
2018-09-15T20:33:40.864Z,3.50
2018-09-15T20:36:09.164Z,3.53
2018-09-15T20:38:37.484Z,3.90
2018-09-15T20:41:06.532Z,2.73
2018-09-15T20:43:34.837Z,3.03
2018-09-15T20:46:03.119Z,3.10
2018-09-15T20:48:38.097Z,3.23
2018-09-15T20:51:06.419Z,4.20
2018-09-15T20:53:34.702Z,4.10
2018-09-15T20:56:02.985Z,3.60
2018-09-15T20:58:31.286Z,4.77
2018-09-15T21:00:59.568Z,4.27
2018-09-15T21:03:27.841Z,4.20
2018-09-15T21:05:56.132Z,5.67
2018-09-15T21:08:24.422Z,4.57
2018-09-15T21:10:52.687Z,4.30
2018-09-15T21:13:21.010Z,4.10
2018-09-15T21:15:49.292Z,3.33
2018-09-15T21:18:17.585Z,3.80
2018-09-15T21:20:45.972Z,3.47
2018-09-15T21:23:14.258Z,3.73
2018-09-15T21:25:42.557Z,4.30
2018-09-15T21:28:10.920Z,3.80
2018-09-15T21:30:39.439Z,3.70
2018-09-15T21:33:07.712Z,3.50
2018-09-15T21:35:36.008Z,4.67
2018-09-15T21:38:04.280Z,4.10
2018-09-15T21:40:32.567Z,4.40
2018-09-15T21:43:00.980Z,4.20
2018-09-15T21:45:29.264Z,3.63
2018-09-15T21:47:57.540Z,4.00
2018-09-15T21:50:25.837Z,3.70
2018-09-15T21:52:54.108Z,4.33
2018-09-15T21:55:22.384Z,4.67
2018-09-15T21:57:50.696Z,4.20
2018-09-15T22:00:19.008Z,4.40
2018-09-15T22:02:47.342Z,4.93
2018-09-15T22:05:15.636Z,4.70
2018-09-15T22:07:43.944Z,4.87
2018-09-15T22:10:12.280Z,4.60
2018-09-15T22:12:40.589Z,3.80
2018-09-15T22:15:13.381Z,4.20
2018-09-15T22:17:41.684Z,4.60
2018-09-15T22:20:09.961Z,4.27
2018-09-15T22:22:38.255Z,5.10
2018-09-15T22:25:06.713Z,4.23
2018-09-15T22:27:35.008Z,4.17
2018-09-15T22:30:03.308Z,4.60
2018-09-15T22:32:31.588Z,4.13
2018-09-15T22:34:59.912Z,4.40
2018-09-15T22:37:28.188Z,4.13
2018-09-15T22:39:56.785Z,4.60
2018-09-15T22:42:25.053Z,4.87
2018-09-15T22:44:53.324Z,4.47
2018-09-15T22:47:21.630Z,4.40
2018-09-15T22:49:49.907Z,4.33
2018-09-15T22:52:18.177Z,4.77
2018-09-15T22:54:46.956Z,4.77
2018-09-15T22:57:15.232Z,4.10
2018-09-15T22:59:43.577Z,4.03
2018-09-15T23:02:11.968Z,3.90
2018-09-15T23:04:40.268Z,3.93
2018-09-15T23:07:08.545Z,4.37
2018-09-15T23:09:36.864Z,4.40
2018-09-15T23:12:05.204Z,4.20
2018-09-15T23:14:33.481Z,4.40
2018-09-15T23:17:01.788Z,3.70
2018-09-15T23:19:30.060Z,3.73
2018-09-15T23:21:58.328Z,3.50
2018-09-15T23:24:26.620Z,3.73
2018-09-15T23:26:54.932Z,3.60
2018-09-15T23:29:23.196Z,3.77
2018-09-15T23:31:51.500Z,3.87
2018-09-15T23:34:19.776Z,4.37
2018-09-15T23:36:51.095Z,4.00
2018-09-15T23:39:19.383Z,4.03
2018-09-15T23:41:47.756Z,3.53
2018-09-15T23:44:16.039Z,3.90
2018-09-15T23:46:44.393Z,4.57
2018-09-15T23:49:12.664Z,4.23
2018-09-15T23:51:40.933Z,3.93
2018-09-15T23:54:09.260Z,4.00
2018-09-15T23:56:37.532Z,3.90
2018-09-15T23:59:06.117Z,4.13
